createdAt,value
2022-09-02T00:00:45.773Z,39.47
2022-09-02T00:03:12.548Z,39.30
2022-09-02T00:05:39.172Z,39.25
2022-09-02T00:08:05.817Z,39.24
2022-09-02T00:10:33.208Z,39.22
2022-09-02T00:12:59.717Z,39.31
2022-09-02T00:15:27.784Z,39.31
2022-09-02T00:17:54.429Z,39.39
2022-09-02T00:20:21.579Z,39.20
2022-09-02T00:22:48.058Z,39.39
2022-09-02T00:25:14.811Z,39.24
2022-09-02T00:27:41.301Z,39.31
2022-09-02T00:30:08.086Z,39.23
2022-09-02T00:32:34.585Z,39.16
2022-09-02T00:35:01.987Z,39.32
2022-09-02T00:37:28.621Z,39.24
2022-09-02T00:39:55.176Z,39.33
2022-09-02T00:42:21.962Z,39.35
2022-09-02T00:44:48.834Z,39.29
2022-09-02T00:47:18.059Z,39.24
2022-09-02T00:49:47.703Z,39.43
2022-09-02T00:52:17.443Z,39.38
2022-09-02T00:54:50.073Z,39.49
2022-09-02T00:57:19.528Z,39.69
2022-09-02T01:00:13.899Z,39.44
2022-09-02T01:02:41.225Z,39.56
2022-09-02T01:05:10.751Z,39.58
2022-09-02T01:07:38.607Z,39.62
2022-09-02T01:10:07.218Z,39.62
2022-09-02T01:12:35.587Z,39.51
2022-09-02T01:15:02.980Z,39.71
2022-09-02T01:17:29.546Z,39.58
2022-09-02T01:20:00.498Z,39.49
2022-09-02T01:22:30.061Z,39.72
2022-09-02T01:24:57.464Z,39.66
2022-09-02T01:27:23.956Z,39.60
2022-09-02T01:29:52.106Z,39.62
2022-09-02T01:32:18.597Z,39.68
2022-09-02T01:34:45.109Z,39.77
2022-09-02T01:37:11.614Z,39.72
2022-09-02T01:39:38.790Z,39.79
2022-09-02T01:42:05.373Z,39.79
2022-09-02T01:44:32.542Z,39.81
2022-09-02T01:46:59.078Z,39.74
2022-09-02T01:49:25.627Z,39.89
2022-09-02T01:51:54.607Z,39.94
2022-09-02T01:54:22.792Z,39.84
2022-09-02T01:56:49.459Z,39.91
2022-09-02T01:59:18.011Z,39.92
2022-09-02T02:01:45.257Z,39.92
2022-09-02T02:04:13.524Z,40.02
2022-09-02T02:06:42.631Z,40.01
2022-09-02T02:09:09.615Z,39.96
2022-09-02T02:11:36.228Z,40.09
2022-09-02T02:14:03.063Z,40.03
2022-09-02T02:16:29.729Z,39.93
2022-09-02T02:18:56.247Z,40.06
2022-09-02T02:21:22.740Z,40.30
2022-09-02T02:23:49.759Z,40.05
2022-09-02T02:26:16.262Z,40.19
2022-09-02T02:28:43.055Z,40.12
2022-09-02T02:31:09.654Z,40.08
2022-09-02T02:33:36.575Z,40.30
2022-09-02T02:36:04.958Z,40.07
2022-09-02T02:38:32.612Z,40.18
2022-09-02T02:41:00.330Z,40.15
2022-09-02T02:43:26.813Z,40.26
2022-09-02T02:45:54.288Z,40.24
2022-09-02T02:48:21.631Z,40.30
2022-09-02T02:50:48.147Z,40.23
2022-09-02T02:53:14.977Z,40.34
2022-09-02T02:55:41.588Z,40.35
2022-09-02T02:58:08.370Z,40.36
2022-09-02T03:00:35.462Z,40.35
2022-09-02T03:03:05.035Z,40.44
2022-09-02T03:05:31.709Z,40.43
2022-09-02T03:07:58.268Z,40.48
2022-09-02T03:10:25.471Z,40.40
2022-09-02T03:12:52.477Z,40.45
2022-09-02T03:15:19.362Z,40.45
2022-09-02T03:17:46.647Z,40.50
2022-09-02T03:20:13.177Z,40.62
2022-09-02T03:22:40.124Z,40.53
2022-09-02T03:25:07.421Z,40.54
2022-09-02T03:27:34.551Z,40.53
2022-09-02T03:30:01.431Z,40.45
2022-09-02T03:32:30.529Z,40.51
2022-09-02T03:34:57.210Z,40.57
2022-09-02T03:37:23.972Z,40.70
2022-09-02T03:39:50.474Z,40.69
2022-09-02T03:42:19.290Z,40.50
2022-09-02T03:44:46.523Z,40.68
2022-09-02T03:47:15.084Z,40.68
2022-09-02T03:49:41.580Z,40.72
2022-09-02T03:52:10.783Z,40.79
2022-09-02T03:54:37.279Z,40.58
2022-09-02T03:57:03.899Z,40.65
2022-09-02T03:59:30.758Z,40.62
2022-09-02T04:01:57.328Z,40.71
2022-09-02T04:04:24.187Z,40.71
2022-09-02T04:06:50.684Z,40.91
2022-09-02T04:09:17.418Z,40.84
2022-09-02T04:11:44.385Z,40.97
2022-09-02T04:14:11.305Z,40.80
2022-09-02T04:16:37.820Z,40.95
2022-09-02T04:19:05.387Z,40.93
2022-09-02T04:21:33.495Z,40.92
2022-09-02T04:24:00.033Z,40.85
2022-09-02T04:26:26.890Z,40.86
2022-09-02T04:28:54.175Z,40.92
2022-09-02T04:31:21.220Z,40.92
2022-09-02T04:33:48.600Z,41.17
2022-09-02T04:36:15.974Z,41.32
2022-09-02T04:38:42.593Z,41.62
2022-09-02T04:41:10.835Z,41.54
2022-09-02T04:43:37.394Z,41.56
2022-09-02T04:46:08.016Z,41.65
2022-09-02T04:48:36.702Z,41.66
2022-09-02T04:51:08.414Z,41.59
2022-09-02T04:53:35.742Z,41.56
2022-09-02T04:56:06.672Z,41.52
2022-09-02T04:58:33.646Z,41.41
2022-09-02T05:01:00.156Z,41.49
2022-09-02T05:03:28.110Z,41.60
2022-09-02T05:06:01.627Z,41.52
2022-09-02T05:08:28.120Z,41.32
2022-09-02T05:10:54.624Z,41.20
2022-09-02T05:13:21.159Z,41.20
2022-09-02T05:15:47.701Z,41.39
2022-09-02T05:18:14.246Z,41.31
2022-09-02T05:20:42.995Z,41.35
2022-09-02T05:23:11.451Z,41.28
2022-09-02T05:25:40.995Z,41.33
2022-09-02T05:28:08.898Z,41.27
2022-09-02T05:30:39.752Z,41.10
2022-09-02T05:33:06.596Z,41.12
2022-09-02T05:35:33.435Z,41.16
2022-09-02T05:38:01.299Z,41.07
2022-09-02T05:40:28.786Z,41.09
2022-09-02T05:42:55.809Z,41.06
2022-09-02T05:45:23.755Z,41.05
2022-09-02T05:47:50.574Z,41.24
2022-09-02T05:50:17.219Z,41.14
2022-09-02T05:52:43.783Z,41.12
2022-09-02T05:55:10.321Z,41.17
2022-09-02T05:57:37.057Z,41.07
2022-09-02T06:00:07.851Z,41.08
2022-09-02T06:02:34.476Z,41.06
2022-09-02T06:05:01.022Z,41.01
2022-09-02T06:07:27.555Z,40.84
2022-09-02T06:09:55.285Z,40.95
2022-09-02T06:12:21.902Z,40.80
2022-09-02T06:14:48.567Z,40.85
2022-09-02T06:17:15.328Z,40.98
2022-09-02T06:19:41.877Z,40.94
2022-09-02T06:22:09.567Z,41.11
2022-09-02T06:24:38.060Z,40.85
2022-09-02T06:27:04.716Z,41.08
2022-09-02T06:29:31.589Z,41.04
2022-09-02T06:31:58.812Z,40.98
2022-09-02T06:34:27.090Z,40.94
2022-09-02T06:36:53.571Z,41.08
2022-09-02T06:39:21.030Z,40.80
2022-09-02T06:41:48.961Z,41.09
2022-09-02T06:44:16.161Z,41.00
2022-09-02T06:46:44.679Z,40.86
2022-09-02T06:49:11.491Z,41.07
2022-09-02T06:51:43.261Z,41.15
2022-09-02T06:54:10.995Z,41.29
2022-09-02T06:56:40.951Z,41.30
2022-09-02T06:59:07.816Z,41.48
2022-09-02T07:01:34.542Z,41.78
2022-09-02T07:04:19.598Z,42.26
2022-09-02T07:06:48.788Z,42.06
2022-09-02T07:09:17.095Z,42.29
2022-09-02T07:11:47.706Z,42.29
2022-09-02T07:14:15.590Z,41.99
2022-09-02T07:16:47.844Z,42.33
2022-09-02T07:19:19.896Z,42.41
2022-09-02T07:21:47.968Z,42.57
2022-09-02T07:24:14.559Z,42.80
2022-09-02T07:26:41.173Z,42.75
2022-09-02T07:29:08.756Z,42.83
2022-09-02T07:31:39.619Z,42.67
2022-09-02T07:34:07.169Z,42.86
2022-09-02T07:36:35.024Z,42.78
2022-09-02T07:39:01.862Z,42.99
2022-09-02T07:41:28.362Z,42.83
2022-09-02T07:43:59.408Z,42.80
2022-09-02T07:46:26.556Z,42.81
2022-09-02T07:48:53.725Z,42.76
2022-09-02T07:51:20.247Z,42.64
2022-09-02T07:53:46.778Z,42.65
2022-09-02T07:56:13.650Z,42.65
2022-09-02T07:58:42.091Z,42.56
2022-09-02T08:01:09.177Z,42.55
2022-09-02T08:03:37.175Z,42.60
2022-09-02T08:06:04.066Z,42.55
2022-09-02T08:08:30.753Z,42.19
2022-09-02T08:10:57.450Z,42.12
2022-09-02T08:13:27.332Z,41.82
2022-09-02T08:15:54.478Z,42.27
2022-09-02T08:18:22.344Z,42.16
2022-09-02T08:20:49.304Z,42.01
2022-09-02T08:23:35.462Z,41.94
2022-09-02T08:26:02.599Z,42.12
2022-09-02T08:28:29.421Z,41.85
2022-09-02T08:30:58.856Z,41.88
2022-09-02T08:33:25.512Z,41.81
2022-09-02T08:35:52.016Z,41.63
2022-09-02T08:38:18.563Z,41.75
2022-09-02T08:40:45.204Z,41.64
2022-09-02T08:43:40.267Z,41.45
2022-09-02T08:46:08.515Z,41.51
2022-09-02T08:48:34.919Z,41.59
2022-09-02T08:51:05.792Z,41.40
2022-09-02T08:53:52.580Z,41.37
2022-09-02T08:56:19.222Z,41.24
2022-09-02T08:58:48.902Z,41.16
2022-09-02T09:01:25.549Z,41.34
2022-09-02T09:04:10.551Z,41.14
2022-09-02T09:06:55.242Z,40.97
2022-09-02T09:09:46.306Z,41.08
2022-09-02T09:12:52.380Z,41.09
2022-09-02T09:15:21.692Z,40.97
2022-09-02T09:17:58.250Z,40.75
2022-09-02T09:20:26.364Z,40.98
2022-09-02T09:22:58.694Z,40.79
2022-09-02T09:25:30.031Z,40.57
2022-09-02T09:27:59.830Z,40.47
2022-09-02T09:30:26.430Z,40.38
2022-09-02T09:32:55.850Z,40.60
2022-09-02T09:35:22.380Z,40.73
2022-09-02T09:37:52.354Z,40.80
2022-09-02T09:40:18.790Z,41.04
2022-09-02T09:42:49.587Z,41.02
2022-09-02T09:45:22.176Z,40.82
2022-09-02T09:48:07.579Z,40.71
2022-09-02T09:50:34.141Z,40.51
2022-09-02T09:53:28.725Z,40.43
2022-09-02T09:56:21.115Z,40.38
2022-09-02T09:58:49.720Z,40.50
2022-09-02T10:01:20.273Z,40.39
2022-09-02T10:03:52.488Z,40.16
2022-09-02T10:06:43.091Z,40.27
2022-09-02T10:09:15.191Z,40.31
2022-09-02T10:12:02.164Z,40.25
2022-09-02T10:14:37.335Z,40.39
2022-09-02T10:17:15.491Z,40.55
2022-09-02T10:20:04.856Z,39.53
2022-09-02T10:22:59.039Z,39.21
2022-09-02T10:25:47.830Z,39.33
2022-09-02T10:28:36.095Z,39.39
2022-09-02T10:31:11.744Z,38.85
2022-09-02T10:33:47.554Z,39.40
2022-09-02T10:36:36.229Z,39.36
2022-09-02T10:39:28.065Z,39.42
2022-09-02T10:41:55.698Z,38.76
2022-09-02T10:44:44.858Z,39.06
2022-09-02T10:47:23.307Z,39.05
2022-09-02T10:50:26.141Z,38.72
2022-09-02T10:53:16.829Z,39.10
2022-09-02T10:56:01.636Z,39.46
2022-09-02T10:58:39.481Z,38.71
2022-09-02T11:01:07.187Z,38.37
2022-09-02T11:04:24.244Z,39.00
2022-09-02T11:07:02.498Z,38.39
2022-09-02T11:09:40.540Z,38.61
2022-09-02T11:12:22.826Z,38.35
2022-09-02T11:15:18.907Z,37.52
2022-09-02T11:18:24.383Z,38.55
2022-09-02T11:20:57.347Z,38.48
2022-09-02T11:23:45.169Z,38.49
2022-09-02T11:26:25.133Z,38.25
2022-09-02T11:28:59.803Z,37.75
2022-09-02T11:31:50.011Z,38.37
2022-09-02T11:34:20.992Z,38.37
2022-09-02T11:36:48.254Z,38.78
2022-09-02T11:39:30.544Z,38.73
2022-09-02T11:42:37.362Z,38.35
2022-09-02T11:45:32.675Z,38.81
2022-09-02T11:47:59.036Z,38.39
2022-09-02T11:50:39.531Z,38.39
2022-09-02T11:53:25.395Z,38.06
2022-09-02T11:55:57.652Z,37.46
2022-09-02T11:58:52.458Z,37.38
2022-09-02T12:01:25.752Z,37.70
2022-09-02T12:04:56.066Z,37.12
2022-09-02T12:07:08.270Z,38.20
2022-09-02T12:09:49.176Z,37.26
2022-09-02T12:12:37.611Z,36.78
2022-09-02T12:15:04.899Z,36.35
2022-09-02T12:17:44.803Z,37.75
2022-09-02T12:20:32.403Z,37.66
2022-09-02T12:23:00.392Z,37.54
2022-09-02T12:25:27.432Z,37.52
2022-09-02T12:28:21.611Z,37.36
2022-09-02T12:31:02.123Z,37.60
2022-09-02T12:33:35.897Z,37.57
2022-09-02T12:36:04.852Z,37.54
2022-09-02T12:38:32.971Z,37.02
2022-09-02T12:41:05.969Z,37.42
2022-09-02T12:43:52.154Z,37.53
2022-09-02T12:47:12.843Z,37.28
2022-09-02T12:49:41.443Z,37.17
2022-09-02T12:52:12.149Z,37.17
2022-09-02T12:54:38.731Z,37.10
2022-09-02T12:57:06.158Z,37.00
2022-09-02T12:59:34.126Z,37.00
2022-09-02T13:02:24.614Z,36.96
2022-09-02T13:04:55.856Z,36.97
2022-09-02T13:07:50.114Z,36.97
2022-09-02T13:10:54.395Z,36.86
2022-09-02T13:13:33.052Z,37.04
2022-09-02T13:16:15.469Z,37.00
2022-09-02T13:19:04.137Z,36.90
2022-09-02T13:22:08.438Z,37.15
2022-09-02T13:25:00.251Z,37.04
2022-09-02T13:27:57.865Z,37.09
2022-09-02T13:30:27.324Z,37.08
2022-09-02T13:33:04.326Z,37.00
2022-09-02T13:35:30.811Z,37.09
2022-09-02T13:38:00.293Z,37.09
2022-09-02T13:40:33.740Z,37.24
2022-09-02T13:43:01.618Z,37.26
2022-09-02T13:45:29.654Z,37.13
2022-09-02T13:48:00.362Z,37.22
2022-09-02T13:50:29.916Z,37.43
2022-09-02T13:55:54.989Z,36.98
2022-09-02T13:58:30.906Z,36.91
2022-09-02T14:01:01.937Z,36.76
2022-09-02T14:03:29.197Z,36.79
2022-09-02T14:05:56.371Z,36.45
2022-09-02T14:08:23.819Z,36.67
2022-09-02T14:10:52.715Z,36.84
2022-09-02T14:13:19.228Z,36.62
2022-09-02T14:15:45.766Z,36.53
2022-09-02T14:18:14.549Z,36.46
2022-09-02T14:20:57.885Z,36.49
2022-09-02T14:23:24.839Z,36.60
2022-09-02T14:25:58.335Z,36.76
2022-09-02T14:28:26.752Z,36.78
2022-09-02T14:30:58.691Z,36.70
2022-09-02T14:33:36.864Z,36.78
2022-09-02T14:36:11.798Z,36.74
2022-09-02T14:38:46.984Z,36.83
2022-09-02T14:41:17.887Z,36.71
2022-09-02T14:43:53.254Z,36.75
2022-09-02T14:46:25.862Z,36.90
2022-09-02T14:49:13.074Z,36.86
2022-09-02T14:51:43.859Z,36.89
2022-09-02T14:54:11.204Z,37.00
2022-09-02T14:57:32.993Z,37.30
2022-09-02T15:00:14.969Z,37.12
2022-09-02T15:02:42.930Z,37.15
2022-09-02T15:05:11.602Z,37.06
2022-09-02T15:07:38.147Z,36.71
2022-09-02T15:10:09.400Z,36.75
2022-09-02T15:12:48.143Z,36.57
2022-09-02T15:15:14.699Z,36.58
2022-09-02T15:17:41.179Z,36.66
2022-09-02T15:20:08.775Z,36.74
2022-09-02T15:22:38.409Z,36.48
2022-09-02T15:25:07.908Z,36.49
2022-09-02T15:27:34.824Z,36.75
2022-09-02T15:30:01.405Z,36.63
2022-09-02T15:32:28.625Z,36.55
2022-09-02T15:34:55.417Z,36.62
2022-09-02T15:37:22.171Z,36.63
2022-09-02T15:39:50.382Z,36.67
2022-09-02T15:42:18.271Z,36.59
2022-09-02T15:44:46.659Z,36.71
2022-09-02T15:47:13.150Z,36.69
2022-09-02T15:49:39.631Z,36.43
2022-09-02T15:52:06.153Z,36.24
2022-09-02T15:54:32.735Z,36.38
2022-09-02T15:56:59.603Z,36.24
2022-09-02T15:59:26.443Z,36.31
2022-09-02T16:01:55.415Z,36.27
2022-09-02T16:04:22.196Z,36.39
2022-09-02T16:06:49.783Z,36.43
2022-09-02T16:09:17.111Z,36.50
2022-09-02T16:11:48.101Z,36.38
2022-09-02T16:14:14.982Z,36.35
2022-09-02T16:16:47.447Z,36.67
2022-09-02T16:19:13.999Z,36.59
2022-09-02T16:21:41.172Z,36.79
2022-09-02T16:24:08.494Z,36.87
2022-09-02T16:26:39.031Z,36.78
2022-09-02T16:29:07.115Z,36.59
2022-09-02T16:31:35.148Z,36.85
2022-09-02T16:34:06.401Z,36.83
2022-09-02T16:36:34.991Z,36.89
2022-09-02T16:39:02.030Z,36.69
2022-09-02T16:41:34.617Z,36.77
2022-09-02T16:44:06.236Z,36.69
2022-09-02T16:46:32.919Z,36.52
2022-09-02T16:48:59.397Z,36.49
2022-09-02T16:51:26.124Z,36.52
2022-09-02T16:53:57.219Z,36.43
2022-09-02T16:56:24.165Z,36.59
2022-09-02T16:58:52.466Z,36.43
2022-09-02T17:01:19.319Z,36.41
2022-09-02T17:03:46.544Z,36.22
2022-09-02T17:06:13.555Z,36.03
2022-09-02T17:08:42.130Z,36.12
2022-09-02T17:11:34.306Z,36.18
2022-09-02T17:14:05.218Z,36.06
2022-09-02T17:16:33.350Z,36.14
2022-09-02T17:18:59.862Z,36.12
2022-09-02T17:21:41.529Z,36.37
2022-09-02T17:24:08.247Z,36.38
2022-09-02T17:26:35.760Z,36.40
2022-09-02T17:29:07.929Z,36.45
2022-09-02T17:31:34.441Z,36.53
2022-09-02T17:34:01.931Z,36.54
2022-09-02T17:36:29.166Z,36.37
2022-09-02T17:38:56.981Z,36.53
2022-09-02T17:41:43.227Z,36.18
2022-09-02T17:44:09.821Z,36.16
2022-09-02T17:46:36.332Z,36.35
2022-09-02T17:49:18.146Z,36.29
2022-09-02T17:51:44.837Z,36.19
2022-09-02T17:54:11.320Z,36.37
2022-09-02T17:57:02.693Z,36.29
2022-09-02T17:59:53.442Z,36.62
2022-09-02T18:02:28.896Z,36.60
2022-09-02T18:04:59.265Z,36.76
2022-09-02T18:07:34.894Z,36.68
2022-09-02T18:10:01.392Z,36.79
2022-09-02T18:12:27.901Z,36.62
2022-09-02T18:15:04.675Z,36.95
2022-09-02T18:17:35.757Z,37.14
2022-09-02T18:20:26.947Z,37.10
2022-09-02T18:23:18.192Z,37.29
2022-09-02T18:26:17.761Z,37.47
2022-09-02T18:28:44.154Z,37.37
2022-09-02T18:31:40.685Z,37.38
2022-09-02T18:34:25.004Z,37.36
2022-09-02T18:36:57.470Z,37.33
2022-09-02T18:39:43.712Z,37.13
2022-09-02T18:42:31.929Z,37.20
2022-09-02T18:45:16.333Z,37.29
2022-09-02T18:48:06.784Z,36.89
2022-09-02T18:50:49.978Z,37.09
2022-09-02T18:53:27.187Z,36.97
2022-09-02T18:55:53.830Z,37.14
2022-09-02T18:58:39.473Z,37.05
2022-09-02T19:01:23.496Z,36.77
2022-09-02T19:03:50.333Z,36.95
2022-09-02T19:06:19.859Z,37.14
2022-09-02T19:08:46.433Z,37.35
2022-09-02T19:11:16.491Z,37.65
2022-09-02T19:13:49.729Z,37.36
2022-09-02T19:16:20.763Z,37.41
2022-09-02T19:18:48.083Z,37.40
2022-09-02T19:21:29.114Z,37.42
2022-09-02T19:23:55.595Z,37.29
2022-09-02T19:26:22.115Z,36.59
2022-09-02T19:28:48.843Z,37.12
2022-09-02T19:31:19.684Z,37.03
2022-09-02T19:33:46.721Z,36.95
2022-09-02T19:36:13.253Z,36.81
2022-09-02T19:38:41.011Z,36.71
2022-09-02T19:41:07.911Z,36.63
2022-09-02T19:43:35.617Z,36.59
2022-09-02T19:46:02.151Z,36.66
2022-09-02T19:48:28.690Z,36.69
2022-09-02T19:50:55.196Z,36.36
2022-09-02T19:53:30.773Z,36.67
2022-09-02T19:56:02.346Z,36.66
2022-09-02T19:58:28.867Z,36.43
2022-09-02T20:00:56.083Z,36.63
2022-09-02T20:03:22.690Z,36.61
2022-09-02T20:05:49.577Z,36.57
2022-09-02T20:08:16.897Z,36.57
2022-09-02T20:10:44.755Z,36.50
2022-09-02T20:13:13.741Z,36.37
2022-09-02T20:15:40.225Z,36.50
2022-09-02T20:18:14.781Z,36.53
2022-09-02T20:20:43.018Z,36.49
2022-09-02T20:23:11.891Z,36.37
2022-09-02T20:26:12.714Z,36.55
2022-09-02T20:28:57.513Z,36.26
2022-09-02T20:31:43.414Z,36.33
2022-09-02T20:34:27.278Z,36.39
2022-09-02T20:36:58.901Z,36.19
2022-09-02T20:39:53.106Z,36.39
2022-09-02T20:42:57.354Z,36.38
2022-09-02T20:45:28.622Z,36.34
2022-09-02T20:48:02.034Z,36.35
2022-09-02T20:50:47.972Z,36.37
2022-09-02T20:54:00.761Z,36.34
2022-09-02T20:57:05.158Z,36.53
2022-09-02T20:59:53.534Z,36.35
2022-09-02T21:02:21.160Z,36.22
2022-09-02T21:04:51.346Z,36.43
2022-09-02T21:07:26.364Z,36.41
2022-09-02T21:10:06.510Z,36.32
2022-09-02T21:12:37.299Z,36.45
2022-09-02T21:15:24.549Z,36.41
2022-09-02T21:17:53.425Z,36.28
2022-09-02T21:20:22.989Z,36.42
2022-09-02T21:22:53.285Z,36.46
2022-09-02T21:25:32.757Z,36.39
2022-09-02T21:28:06.223Z,36.47
2022-09-02T21:30:36.684Z,36.32
2022-09-02T21:33:05.158Z,36.44
2022-09-02T21:35:38.782Z,36.34
2022-09-02T21:38:33.533Z,36.28
2022-09-02T21:41:09.432Z,36.47
2022-09-02T21:44:02.398Z,36.40
2022-09-02T21:46:58.246Z,36.36
2022-09-02T21:49:56.579Z,36.36
2022-09-02T21:53:03.672Z,36.27
2022-09-02T21:55:48.652Z,36.30
2022-09-02T21:58:47.490Z,36.49
2022-09-02T22:01:26.555Z,36.37
2022-09-02T22:03:56.688Z,36.38
2022-09-02T22:06:28.859Z,36.35
2022-09-02T22:08:58.552Z,36.44
2022-09-02T22:11:36.794Z,36.40
2022-09-02T22:14:30.705Z,36.44
2022-09-02T22:17:01.808Z,36.29
2022-09-02T22:19:31.069Z,36.39
2022-09-02T22:22:07.669Z,36.32
2022-09-02T22:24:37.210Z,36.46
2022-09-02T22:27:16.457Z,36.44
2022-09-02T22:30:02.356Z,36.70
2022-09-02T22:32:31.753Z,36.76
2022-09-02T22:35:27.930Z,36.88
2022-09-02T22:38:03.411Z,36.61
2022-09-02T22:40:34.303Z,36.68
2022-09-02T22:43:04.854Z,36.84
2022-09-02T22:45:53.017Z,36.80
2022-09-02T22:48:43.757Z,36.89
2022-09-02T22:51:32.930Z,36.79
2022-09-02T22:53:59.411Z,36.79
2022-09-02T22:56:55.783Z,36.73
2022-09-02T22:59:53.222Z,37.02
2022-09-02T23:02:36.856Z,36.97
2022-09-02T23:05:06.877Z,37.08
2022-09-02T23:07:33.405Z,36.96
2022-09-02T23:10:00.579Z,37.04
2022-09-02T23:12:44.774Z,36.82
2022-09-02T23:15:32.945Z,36.98
2022-09-02T23:18:17.154Z,36.97
2022-09-02T23:20:50.660Z,37.03
2022-09-02T23:23:31.312Z,36.85
2022-09-02T23:26:09.738Z,37.06
2022-09-02T23:29:00.702Z,36.90
2022-09-02T23:31:45.105Z,37.00
2022-09-02T23:34:24.701Z,37.02
2022-09-02T23:36:57.583Z,37.09
2022-09-02T23:39:44.062Z,36.85
2022-09-02T23:42:11.764Z,37.00
2022-09-02T23:44:38.552Z,37.17
2022-09-02T23:47:19.400Z,37.22
2022-09-02T23:50:05.307Z,37.13
2022-09-02T23:52:42.911Z,37.08
2022-09-02T23:55:20.366Z,37.17
2022-09-02T23:58:12.517Z,37.11
